sensor_id;sensor_type;location;lat;lon;timestamp;P1;durP1;ratioP1;P2;durP2;ratioP2
1699;SDS011;847;48.058;7.810;2022-10-16T00:01:52;3.50;;;2.47;;
1699;SDS011;847;48.058;7.810;2022-10-16T00:04:18;4.23;;;2.37;;
1699;SDS011;847;48.058;7.810;2022-10-16T00:06:45;3.50;;;2.80;;
1699;SDS011;847;48.058;7.810;2022-10-16T00:09:12;3.80;;;2.67;;
1699;SDS011;847;48.058;7.810;2022-10-16T00:11:40;4.13;;;2.27;;
1699;SDS011;847;48.058;7.810;2022-10-16T00:14:08;3.13;;;2.53;;
1699;SDS011;847;48.058;7.810;2022-10-16T00:16:36;3.83;;;2.70;;
1699;SDS011;847;48.058;7.810;2022-10-16T00:19:03;6.10;;;2.93;;
1699;SDS011;847;48.058;7.810;2022-10-16T00:21:33;6.17;;;2.50;;
1699;SDS011;847;48.058;7.810;2022-10-16T00:24:00;5.50;;;3.07;;
1699;SDS011;847;48.058;7.810;2022-10-16T00:26:30;4.00;;;3.20;;
1699;SDS011;847;48.058;7.810;2022-10-16T00:28:59;5.17;;;2.50;;
1699;SDS011;847;48.058;7.810;2022-10-16T00:31:26;3.13;;;2.30;;
1699;SDS011;847;48.058;7.810;2022-10-16T00:33:53;4.40;;;2.40;;
1699;SDS011;847;48.058;7.810;2022-10-16T00:36:21;4.20;;;2.80;;
1699;SDS011;847;48.058;7.810;2022-10-16T00:38:49;3.90;;;2.20;;
1699;SDS011;847;48.058;7.810;2022-10-16T00:41:19;3.60;;;2.53;;
1699;SDS011;847;48.058;7.810;2022-10-16T00:43:48;7.20;;;2.07;;
1699;SDS011;847;48.058;7.810;2022-10-16T00:46:19;3.30;;;2.40;;
1699;SDS011;847;48.058;7.810;2022-10-16T00:48:49;2.30;;;2.10;;
1699;SDS011;847;48.058;7.810;2022-10-16T00:51:18;3.60;;;1.90;;
1699;SDS011;847;48.058;7.810;2022-10-16T00:53:49;2.90;;;1.97;;
1699;SDS011;847;48.058;7.810;2022-10-16T00:56:16;3.40;;;2.03;;
1699;SDS011;847;48.058;7.810;2022-10-16T00:58:44;1.93;;;1.77;;
1699;SDS011;847;48.058;7.810;2022-10-16T01:01:11;4.47;;;1.97;;
1699;SDS011;847;48.058;7.810;2022-10-16T01:03:39;2.97;;;1.63;;
1699;SDS011;847;48.058;7.810;2022-10-16T01:06:19;4.10;;;2.10;;
1699;SDS011;847;48.058;7.810;2022-10-16T01:08:53;1.70;;;1.60;;
1699;SDS011;847;48.058;7.810;2022-10-16T01:11:30;2.30;;;1.80;;
1699;SDS011;847;48.058;7.810;2022-10-16T01:14:02;2.33;;;1.50;;
1699;SDS011;847;48.058;7.810;2022-10-16T01:16:35;6.07;;;1.67;;
1699;SDS011;847;48.058;7.810;2022-10-16T01:19:11;1.77;;;1.67;;
1699;SDS011;847;48.058;7.810;2022-10-16T01:21:43;2.37;;;1.60;;
1699;SDS011;847;48.058;7.810;2022-10-16T01:24:15;3.70;;;1.93;;
1699;SDS011;847;48.058;7.810;2022-10-16T01:27:10;5.80;;;1.93;;
1699;SDS011;847;48.058;7.810;2022-10-16T01:29:39;1.90;;;1.73;;
1699;SDS011;847;48.058;7.810;2022-10-16T01:32:15;7.90;;;2.00;;
1699;SDS011;847;48.058;7.810;2022-10-16T01:34:47;7.57;;;1.87;;
1699;SDS011;847;48.058;7.810;2022-10-16T01:37:18;2.73;;;2.20;;
1699;SDS011;847;48.058;7.810;2022-10-16T01:39:53;4.67;;;2.00;;
1699;SDS011;847;48.058;7.810;2022-10-16T01:42:26;3.90;;;2.10;;
1699;SDS011;847;48.058;7.810;2022-10-16T01:45:00;2.47;;;2.20;;
1699;SDS011;847;48.058;7.810;2022-10-16T01:47:28;3.30;;;2.60;;
1699;SDS011;847;48.058;7.810;2022-10-16T01:49:57;5.30;;;1.90;;
1699;SDS011;847;48.058;7.810;2022-10-16T01:52:26;2.40;;;1.83;;
1699;SDS011;847;48.058;7.810;2022-10-16T01:54:55;5.80;;;2.27;;
1699;SDS011;847;48.058;7.810;2022-10-16T01:57:24;5.60;;;2.00;;
1699;SDS011;847;48.058;7.810;2022-10-16T01:59:54;3.57;;;1.83;;
1699;SDS011;847;48.058;7.810;2022-10-16T02:02:24;5.27;;;1.90;;
1699;SDS011;847;48.058;7.810;2022-10-16T02:04:55;4.00;;;2.90;;
1699;SDS011;847;48.058;7.810;2022-10-16T02:07:25;7.80;;;2.63;;
1699;SDS011;847;48.058;7.810;2022-10-16T02:09:53;3.30;;;2.13;;
1699;SDS011;847;48.058;7.810;2022-10-16T02:12:22;8.40;;;1.77;;
1699;SDS011;847;48.058;7.810;2022-10-16T02:14:53;5.20;;;2.30;;
1699;SDS011;847;48.058;7.810;2022-10-16T02:17:20;3.63;;;2.50;;
1699;SDS011;847;48.058;7.810;2022-10-16T02:19:48;4.90;;;2.23;;
1699;SDS011;847;48.058;7.810;2022-10-16T02:22:20;5.23;;;2.17;;
1699;SDS011;847;48.058;7.810;2022-10-16T02:27:24;4.33;;;1.87;;
1699;SDS011;847;48.058;7.810;2022-10-16T02:30:00;3.80;;;2.10;;
1699;SDS011;847;48.058;7.810;2022-10-16T02:32:33;7.10;;;2.10;;
1699;SDS011;847;48.058;7.810;2022-10-16T02:35:03;6.13;;;2.60;;
1699;SDS011;847;48.058;7.810;2022-10-16T02:37:31;4.27;;;2.43;;
1699;SDS011;847;48.058;7.810;2022-10-16T02:39:58;3.70;;;2.17;;
1699;SDS011;847;48.058;7.810;2022-10-16T02:42:29;2.57;;;2.10;;
1699;SDS011;847;48.058;7.810;2022-10-16T02:44:58;3.70;;;2.50;;
1699;SDS011;847;48.058;7.810;2022-10-16T02:47:25;3.10;;;2.00;;
1699;SDS011;847;48.058;7.810;2022-10-16T02:49:52;2.93;;;2.33;;
1699;SDS011;847;48.058;7.810;2022-10-16T02:52:19;3.30;;;2.30;;
1699;SDS011;847;48.058;7.810;2022-10-16T02:54:46;4.50;;;2.40;;
1699;SDS011;847;48.058;7.810;2022-10-16T02:57:13;5.10;;;2.70;;
1699;SDS011;847;48.058;7.810;2022-10-16T02:59:41;4.27;;;2.03;;
1699;SDS011;847;48.058;7.810;2022-10-16T03:02:08;2.43;;;1.90;;
1699;SDS011;847;48.058;7.810;2022-10-16T03:04:35;2.77;;;2.10;;
1699;SDS011;847;48.058;7.810;2022-10-16T03:07:02;2.80;;;2.30;;
1699;SDS011;847;48.058;7.810;2022-10-16T03:09:29;4.33;;;2.43;;
1699;SDS011;847;48.058;7.810;2022-10-16T03:11:56;2.83;;;2.63;;
1699;SDS011;847;48.058;7.810;2022-10-16T03:14:23;2.63;;;2.43;;
1699;SDS011;847;48.058;7.810;2022-10-16T03:16:51;2.70;;;2.00;;
1699;SDS011;847;48.058;7.810;2022-10-16T03:19:18;2.50;;;1.80;;
1699;SDS011;847;48.058;7.810;2022-10-16T03:21:45;3.13;;;2.00;;
1699;SDS011;847;48.058;7.810;2022-10-16T03:24:11;1.87;;;1.43;;
1699;SDS011;847;48.058;7.810;2022-10-16T03:26:38;6.50;;;2.00;;
1699;SDS011;847;48.058;7.810;2022-10-16T03:29:05;3.47;;;2.20;;
1699;SDS011;847;48.058;7.810;2022-10-16T03:31:32;3.33;;;1.87;;
1699;SDS011;847;48.058;7.810;2022-10-16T03:34:00;4.27;;;2.30;;
1699;SDS011;847;48.058;7.810;2022-10-16T03:36:27;4.90;;;2.20;;
1699;SDS011;847;48.058;7.810;2022-10-16T03:38:54;2.53;;;1.70;;
1699;SDS011;847;48.058;7.810;2022-10-16T03:41:21;2.80;;;1.70;;
1699;SDS011;847;48.058;7.810;2022-10-16T03:43:48;8.20;;;2.37;;
1699;SDS011;847;48.058;7.810;2022-10-16T03:46:14;4.80;;;2.00;;
1699;SDS011;847;48.058;7.810;2022-10-16T03:48:41;9.20;;;2.13;;
1699;SDS011;847;48.058;7.810;2022-10-16T03:51:09;11.83;;;2.33;;
1699;SDS011;847;48.058;7.810;2022-10-16T03:53:36;4.13;;;2.40;;
1699;SDS011;847;48.058;7.810;2022-10-16T03:56:03;5.17;;;1.90;;
1699;SDS011;847;48.058;7.810;2022-10-16T03:58:30;5.80;;;1.97;;
1699;SDS011;847;48.058;7.810;2022-10-16T04:00:56;4.47;;;2.20;;
1699;SDS011;847;48.058;7.810;2022-10-16T04:03:23;7.33;;;1.90;;
1699;SDS011;847;48.058;7.810;2022-10-16T04:05:50;5.40;;;2.90;;
1699;SDS011;847;48.058;7.810;2022-10-16T04:08:18;2.07;;;1.87;;
1699;SDS011;847;48.058;7.810;2022-10-16T04:10:45;8.37;;;2.03;;
1699;SDS011;847;48.058;7.810;2022-10-16T04:13:12;4.40;;;2.27;;
1699;SDS011;847;48.058;7.810;2022-10-16T04:15:39;3.23;;;2.00;;
1699;SDS011;847;48.058;7.810;2022-10-16T04:18:05;5.27;;;2.07;;
1699;SDS011;847;48.058;7.810;2022-10-16T04:20:33;5.50;;;2.13;;
1699;SDS011;847;48.058;7.810;2022-10-16T04:23:00;5.63;;;2.47;;
1699;SDS011;847;48.058;7.810;2022-10-16T04:25:28;6.93;;;2.23;;
1699;SDS011;847;48.058;7.810;2022-10-16T04:27:55;2.60;;;1.77;;
1699;SDS011;847;48.058;7.810;2022-10-16T04:30:22;6.57;;;2.03;;
1699;SDS011;847;48.058;7.810;2022-10-16T04:32:49;4.93;;;2.20;;
1699;SDS011;847;48.058;7.810;2022-10-16T04:35:16;5.47;;;1.90;;
1699;SDS011;847;48.058;7.810;2022-10-16T04:37:42;4.87;;;2.20;;
1699;SDS011;847;48.058;7.810;2022-10-16T04:40:09;2.80;;;1.80;;
1699;SDS011;847;48.058;7.810;2022-10-16T04:42:37;3.10;;;2.10;;
1699;SDS011;847;48.058;7.810;2022-10-16T04:45:05;6.63;;;2.50;;
1699;SDS011;847;48.058;7.810;2022-10-16T04:47:32;5.13;;;2.10;;
1699;SDS011;847;48.058;7.810;2022-10-16T04:49:59;2.33;;;2.07;;
1699;SDS011;847;48.058;7.810;2022-10-16T04:52:27;3.57;;;2.30;;
1699;SDS011;847;48.058;7.810;2022-10-16T04:54:54;4.10;;;2.20;;
1699;SDS011;847;48.058;7.810;2022-10-16T04:57:25;4.47;;;2.13;;
1699;SDS011;847;48.058;7.810;2022-10-16T04:59:54;7.03;;;1.70;;
1699;SDS011;847;48.058;7.810;2022-10-16T05:02:20;3.30;;;2.30;;
1699;SDS011;847;48.058;7.810;2022-10-16T05:04:47;3.73;;;1.80;;
1699;SDS011;847;48.058;7.810;2022-10-16T05:07:14;3.37;;;2.40;;
1699;SDS011;847;48.058;7.810;2022-10-16T05:09:41;3.00;;;2.00;;
1699;SDS011;847;48.058;7.810;2022-10-16T05:12:08;2.50;;;1.97;;
1699;SDS011;847;48.058;7.810;2022-10-16T05:14:34;2.50;;;1.90;;
1699;SDS011;847;48.058;7.810;2022-10-16T05:17:03;3.27;;;2.10;;
1699;SDS011;847;48.058;7.810;2022-10-16T05:19:29;3.57;;;1.60;;
1699;SDS011;847;48.058;7.810;2022-10-16T05:21:56;7.60;;;2.33;;
1699;SDS011;847;48.058;7.810;2022-10-16T05:24:24;5.50;;;3.40;;
1699;SDS011;847;48.058;7.810;2022-10-16T05:26:50;3.10;;;2.30;;
1699;SDS011;847;48.058;7.810;2022-10-16T05:29:17;6.03;;;2.40;;
1699;SDS011;847;48.058;7.810;2022-10-16T05:31:44;3.30;;;1.93;;
1699;SDS011;847;48.058;7.810;2022-10-16T05:34:12;3.93;;;2.50;;
1699;SDS011;847;48.058;7.810;2022-10-16T05:36:39;4.83;;;2.40;;
1699;SDS011;847;48.058;7.810;2022-10-16T05:39:06;9.90;;;2.67;;
1699;SDS011;847;48.058;7.810;2022-10-16T05:41:32;4.37;;;2.70;;
1699;SDS011;847;48.058;7.810;2022-10-16T05:43:59;9.50;;;2.90;;
1699;SDS011;847;48.058;7.810;2022-10-16T05:46:26;6.60;;;2.27;;
1699;SDS011;847;48.058;7.810;2022-10-16T05:48:53;8.20;;;2.80;;
1699;SDS011;847;48.058;7.810;2022-10-16T05:51:21;2.60;;;1.90;;
1699;SDS011;847;48.058;7.810;2022-10-16T05:53:47;3.03;;;2.60;;
1699;SDS011;847;48.058;7.810;2022-10-16T05:56:14;4.80;;;3.30;;
1699;SDS011;847;48.058;7.810;2022-10-16T05:58:41;10.50;;;3.03;;
1699;SDS011;847;48.058;7.810;2022-10-16T06:01:10;6.33;;;5.73;;
1699;SDS011;847;48.058;7.810;2022-10-16T06:03:37;7.70;;;5.30;;
1699;SDS011;847;48.058;7.810;2022-10-16T06:06:07;9.57;;;8.57;;
1699;SDS011;847;48.058;7.810;2022-10-16T06:08:36;10.80;;;8.90;;
1699;SDS011;847;48.058;7.810;2022-10-16T06:11:04;12.00;;;6.80;;
1699;SDS011;847;48.058;7.810;2022-10-16T06:13:32;10.23;;;7.20;;
1699;SDS011;847;48.058;7.810;2022-10-16T06:15:59;8.10;;;5.80;;
1699;SDS011;847;48.058;7.810;2022-10-16T06:18:26;5.73;;;4.20;;
1699;SDS011;847;48.058;7.810;2022-10-16T06:20:54;18.07;;;4.13;;
1699;SDS011;847;48.058;7.810;2022-10-16T06:23:21;3.80;;;3.33;;
1699;SDS011;847;48.058;7.810;2022-10-16T06:25:50;7.10;;;3.93;;
1699;SDS011;847;48.058;7.810;2022-10-16T06:28:16;4.23;;;2.70;;
1699;SDS011;847;48.058;7.810;2022-10-16T06:30:43;3.80;;;2.40;;
1699;SDS011;847;48.058;7.810;2022-10-16T06:33:10;7.20;;;2.57;;
1699;SDS011;847;48.058;7.810;2022-10-16T06:35:37;3.90;;;2.53;;
1699;SDS011;847;48.058;7.810;2022-10-16T06:38:04;4.57;;;3.07;;
1699;SDS011;847;48.058;7.810;2022-10-16T06:40:31;5.00;;;3.50;;
1699;SDS011;847;48.058;7.810;2022-10-16T06:42:59;4.50;;;3.03;;
1699;SDS011;847;48.058;7.810;2022-10-16T06:45:26;3.43;;;2.53;;
1699;SDS011;847;48.058;7.810;2022-10-16T06:47:53;3.30;;;2.20;;
1699;SDS011;847;48.058;7.810;2022-10-16T06:50:19;4.53;;;2.97;;
1699;SDS011;847;48.058;7.810;2022-10-16T06:52:46;4.63;;;3.37;;
1699;SDS011;847;48.058;7.810;2022-10-16T06:55:13;8.67;;;4.67;;
1699;SDS011;847;48.058;7.810;2022-10-16T06:57:42;10.40;;;6.40;;
1699;SDS011;847;48.058;7.810;2022-10-16T07:00:10;7.23;;;5.97;;
1699;SDS011;847;48.058;7.810;2022-10-16T07:02:37;6.60;;;3.90;;
1699;SDS011;847;48.058;7.810;2022-10-16T07:05:04;5.50;;;4.50;;
1699;SDS011;847;48.058;7.810;2022-10-16T07:07:31;6.43;;;3.80;;
1699;SDS011;847;48.058;7.810;2022-10-16T07:09:58;8.27;;;3.90;;
1699;SDS011;847;48.058;7.810;2022-10-16T07:12:25;3.50;;;3.20;;
1699;SDS011;847;48.058;7.810;2022-10-16T07:14:52;5.10;;;3.43;;
1699;SDS011;847;48.058;7.810;2022-10-16T07:17:21;3.97;;;3.53;;
1699;SDS011;847;48.058;7.810;2022-10-16T07:19:47;5.67;;;4.77;;
1699;SDS011;847;48.058;7.810;2022-10-16T07:22:14;5.80;;;4.27;;
1699;SDS011;847;48.058;7.810;2022-10-16T07:24:41;6.00;;;3.50;;
1699;SDS011;847;48.058;7.810;2022-10-16T07:27:08;4.10;;;3.60;;
1699;SDS011;847;48.058;7.810;2022-10-16T07:29:35;9.13;;;4.00;;
1699;SDS011;847;48.058;7.810;2022-10-16T07:32:02;4.23;;;3.10;;
1699;SDS011;847;48.058;7.810;2022-10-16T07:34:30;3.10;;;2.50;;
1699;SDS011;847;48.058;7.810;2022-10-16T07:36:57;5.97;;;2.07;;
1699;SDS011;847;48.058;7.810;2022-10-16T07:39:24;4.10;;;2.30;;
1699;SDS011;847;48.058;7.810;2022-10-16T07:41:50;3.23;;;2.10;;
1699;SDS011;847;48.058;7.810;2022-10-16T07:44:17;4.00;;;2.30;;
1699;SDS011;847;48.058;7.810;2022-10-16T07:46:44;5.27;;;2.27;;
1699;SDS011;847;48.058;7.810;2022-10-16T07:49:11;2.43;;;2.23;;
1699;SDS011;847;48.058;7.810;2022-10-16T07:51:39;4.13;;;2.37;;
1699;SDS011;847;48.058;7.810;2022-10-16T07:54:07;5.27;;;2.73;;
1699;SDS011;847;48.058;7.810;2022-10-16T07:56:34;3.60;;;2.70;;
1699;SDS011;847;48.058;7.810;2022-10-16T07:59:01;4.80;;;2.70;;
1699;SDS011;847;48.058;7.810;2022-10-16T08:01:28;3.27;;;2.60;;
1699;SDS011;847;48.058;7.810;2022-10-16T08:03:54;7.50;;;3.47;;
1699;SDS011;847;48.058;7.810;2022-10-16T08:06:21;6.07;;;2.57;;
1699;SDS011;847;48.058;7.810;2022-10-16T08:08:50;3.40;;;2.30;;
1699;SDS011;847;48.058;7.810;2022-10-16T08:11:17;4.73;;;2.80;;
1699;SDS011;847;48.058;7.810;2022-10-16T08:13:43;6.40;;;2.53;;
1699;SDS011;847;48.058;7.810;2022-10-16T08:16:10;3.50;;;2.63;;
1699;SDS011;847;48.058;7.810;2022-10-16T08:18:37;5.23;;;2.60;;
1699;SDS011;847;48.058;7.810;2022-10-16T08:21:05;3.93;;;2.50;;
1699;SDS011;847;48.058;7.810;2022-10-16T08:23:33;4.50;;;2.37;;
1699;SDS011;847;48.058;7.810;2022-10-16T08:26:05;7.70;;;3.87;;
1699;SDS011;847;48.058;7.810;2022-10-16T08:28:33;5.13;;;3.03;;
1699;SDS011;847;48.058;7.810;2022-10-16T08:31:07;2.90;;;2.40;;
1699;SDS011;847;48.058;7.810;2022-10-16T08:33:34;2.90;;;2.70;;
1699;SDS011;847;48.058;7.810;2022-10-16T08:36:02;6.03;;;5.43;;
1699;SDS011;847;48.058;7.810;2022-10-16T08:38:30;9.90;;;5.30;;
1699;SDS011;847;48.058;7.810;2022-10-16T08:41:02;4.60;;;3.00;;
1699;SDS011;847;48.058;7.810;2022-10-16T08:43:43;6.60;;;3.10;;
1699;SDS011;847;48.058;7.810;2022-10-16T08:46:39;6.37;;;2.80;;
1699;SDS011;847;48.058;7.810;2022-10-16T08:49:12;7.70;;;3.70;;
1699;SDS011;847;48.058;7.810;2022-10-16T08:51:40;5.97;;;5.47;;
1699;SDS011;847;48.058;7.810;2022-10-16T08:54:11;7.70;;;6.73;;
1699;SDS011;847;48.058;7.810;2022-10-16T08:56:54;7.03;;;4.50;;
1699;SDS011;847;48.058;7.810;2022-10-16T08:59:22;5.70;;;2.87;;
1699;SDS011;847;48.058;7.810;2022-10-16T09:01:49;10.73;;;4.83;;
1699;SDS011;847;48.058;7.810;2022-10-16T09:04:41;3.90;;;2.20;;
1699;SDS011;847;48.058;7.810;2022-10-16T09:07:17;10.03;;;3.30;;
1699;SDS011;847;48.058;7.810;2022-10-16T09:09:54;2.40;;;2.20;;
1699;SDS011;847;48.058;7.810;2022-10-16T09:12:35;4.30;;;2.50;;
1699;SDS011;847;48.058;7.810;2022-10-16T09:15:10;2.77;;;2.57;;
1699;SDS011;847;48.058;7.810;2022-10-16T09:17:48;7.67;;;4.60;;
1699;SDS011;847;48.058;7.810;2022-10-16T09:20:25;7.17;;;4.00;;
1699;SDS011;847;48.058;7.810;2022-10-16T09:23:00;7.00;;;3.73;;
1699;SDS011;847;48.058;7.810;2022-10-16T09:25:39;5.73;;;3.73;;
1699;SDS011;847;48.058;7.810;2022-10-16T09:28:10;7.97;;;3.20;;
1699;SDS011;847;48.058;7.810;2022-10-16T09:30:37;3.90;;;2.83;;
1699;SDS011;847;48.058;7.810;2022-10-16T09:33:05;5.83;;;2.90;;
1699;SDS011;847;48.058;7.810;2022-10-16T09:35:35;5.13;;;2.77;;
1699;SDS011;847;48.058;7.810;2022-10-16T09:38:04;3.53;;;2.40;;
1699;SDS011;847;48.058;7.810;2022-10-16T09:40:32;2.40;;;2.20;;
1699;SDS011;847;48.058;7.810;2022-10-16T09:43:03;4.23;;;2.80;;
1699;SDS011;847;48.058;7.810;2022-10-16T09:45:43;4.73;;;3.13;;
1699;SDS011;847;48.058;7.810;2022-10-16T09:48:19;3.83;;;3.43;;
1699;SDS011;847;48.058;7.810;2022-10-16T09:50:55;3.70;;;2.57;;
1699;SDS011;847;48.058;7.810;2022-10-16T09:53:22;6.40;;;2.67;;
1699;SDS011;847;48.058;7.810;2022-10-16T09:55:51;3.67;;;2.83;;
1699;SDS011;847;48.058;7.810;2022-10-16T09:58:22;5.70;;;3.30;;
1699;SDS011;847;48.058;7.810;2022-10-16T10:00:49;3.40;;;2.50;;
1699;SDS011;847;48.058;7.810;2022-10-16T10:03:30;4.97;;;2.60;;
1699;SDS011;847;48.058;7.810;2022-10-16T10:06:03;4.73;;;3.07;;
1699;SDS011;847;48.058;7.810;2022-10-16T10:08:33;3.77;;;2.50;;
1699;SDS011;847;48.058;7.810;2022-10-16T10:11:00;5.40;;;3.10;;
1699;SDS011;847;48.058;7.810;2022-10-16T10:13:28;2.90;;;2.30;;
1699;SDS011;847;48.058;7.810;2022-10-16T10:15:54;4.83;;;2.57;;
1699;SDS011;847;48.058;7.810;2022-10-16T10:18:22;2.90;;;2.10;;
1699;SDS011;847;48.058;7.810;2022-10-16T10:20:56;8.17;;;3.63;;
1699;SDS011;847;48.058;7.810;2022-10-16T10:23:25;9.43;;;2.40;;
1699;SDS011;847;48.058;7.810;2022-10-16T10:25:53;4.20;;;2.60;;
1699;SDS011;847;48.058;7.810;2022-10-16T10:31:21;6.93;;;2.60;;
1699;SDS011;847;48.058;7.810;2022-10-16T10:33:55;14.33;;;3.87;;
1699;SDS011;847;48.058;7.810;2022-10-16T10:36:32;5.73;;;2.70;;
1699;SDS011;847;48.058;7.810;2022-10-16T10:39:02;7.13;;;2.40;;
1699;SDS011;847;48.058;7.810;2022-10-16T10:41:38;4.90;;;2.47;;
1699;SDS011;847;48.058;7.810;2022-10-16T10:44:33;3.90;;;2.70;;
1699;SDS011;847;48.058;7.810;2022-10-16T10:47:16;3.23;;;2.30;;
1699;SDS011;847;48.058;7.810;2022-10-16T10:49:53;6.97;;;2.57;;
1699;SDS011;847;48.058;7.810;2022-10-16T10:52:31;5.90;;;2.47;;
1699;SDS011;847;48.058;7.810;2022-10-16T10:55:12;4.17;;;2.07;;
1699;SDS011;847;48.058;7.810;2022-10-16T10:57:51;4.03;;;2.50;;
1699;SDS011;847;48.058;7.810;2022-10-16T11:00:35;4.90;;;2.13;;
1699;SDS011;847;48.058;7.810;2022-10-16T11:03:13;2.93;;;2.07;;
1699;SDS011;847;48.058;7.810;2022-10-16T11:05:54;3.97;;;2.13;;
1699;SDS011;847;48.058;7.810;2022-10-16T11:08:26;4.03;;;2.23;;
1699;SDS011;847;48.058;7.810;2022-10-16T11:11:00;4.83;;;2.10;;
1699;SDS011;847;48.058;7.810;2022-10-16T11:13:31;2.63;;;2.20;;
1699;SDS011;847;48.058;7.810;2022-10-16T11:16:06;3.50;;;2.20;;
1699;SDS011;847;48.058;7.810;2022-10-16T11:18:42;2.73;;;1.90;;
1699;SDS011;847;48.058;7.810;2022-10-16T11:21:16;5.00;;;2.43;;
1699;SDS011;847;48.058;7.810;2022-10-16T11:23:46;3.20;;;2.13;;
1699;SDS011;847;48.058;7.810;2022-10-16T11:26:17;4.10;;;1.87;;
1699;SDS011;847;48.058;7.810;2022-10-16T11:28:48;3.83;;;2.47;;
1699;SDS011;847;48.058;7.810;2022-10-16T11:31:19;5.77;;;2.10;;
1699;SDS011;847;48.058;7.810;2022-10-16T11:33:51;3.57;;;1.97;;
1699;SDS011;847;48.058;7.810;2022-10-16T11:36:25;2.13;;;1.87;;
1699;SDS011;847;48.058;7.810;2022-10-16T11:39:00;1.73;;;1.63;;
1699;SDS011;847;48.058;7.810;2022-10-16T11:41:34;2.70;;;1.60;;
1699;SDS011;847;48.058;7.810;2022-10-16T11:44:10;7.80;;;2.50;;
1699;SDS011;847;48.058;7.810;2022-10-16T11:46:48;4.83;;;2.00;;
1699;SDS011;847;48.058;7.810;2022-10-16T11:49:20;3.60;;;1.87;;
1699;SDS011;847;48.058;7.810;2022-10-16T11:51:54;2.77;;;1.93;;
1699;SDS011;847;48.058;7.810;2022-10-16T11:54:28;4.40;;;1.77;;
1699;SDS011;847;48.058;7.810;2022-10-16T11:57:07;4.90;;;1.67;;
1699;SDS011;847;48.058;7.810;2022-10-16T11:59:39;1.83;;;1.50;;
1699;SDS011;847;48.058;7.810;2022-10-16T12:02:19;3.30;;;1.63;;
1699;SDS011;847;48.058;7.810;2022-10-16T12:05:01;1.97;;;1.70;;
1699;SDS011;847;48.058;7.810;2022-10-16T12:07:39;3.10;;;1.70;;
1699;SDS011;847;48.058;7.810;2022-10-16T12:10:18;4.93;;;1.67;;
1699;SDS011;847;48.058;7.810;2022-10-16T12:12:47;1.50;;;1.33;;
1699;SDS011;847;48.058;7.810;2022-10-16T12:15:19;2.90;;;1.27;;
1699;SDS011;847;48.058;7.810;2022-10-16T12:17:52;2.93;;;1.57;;
1699;SDS011;847;48.058;7.810;2022-10-16T12:20:21;1.50;;;1.40;;
1699;SDS011;847;48.058;7.810;2022-10-16T12:22:51;2.23;;;1.50;;
1699;SDS011;847;48.058;7.810;2022-10-16T12:25:21;1.80;;;1.70;;
1699;SDS011;847;48.058;7.810;2022-10-16T12:27:56;2.80;;;1.50;;
1699;SDS011;847;48.058;7.810;2022-10-16T12:30:27;2.27;;;1.70;;
1699;SDS011;847;48.058;7.810;2022-10-16T12:32:57;2.07;;;1.80;;
1699;SDS011;847;48.058;7.810;2022-10-16T12:35:27;2.53;;;1.40;;
1699;SDS011;847;48.058;7.810;2022-10-16T12:38:04;2.50;;;2.07;;
1699;SDS011;847;48.058;7.810;2022-10-16T12:40:34;3.70;;;1.50;;
1699;SDS011;847;48.058;7.810;2022-10-16T12:43:13;1.97;;;1.43;;
1699;SDS011;847;48.058;7.810;2022-10-16T12:46:02;3.13;;;1.70;;
1699;SDS011;847;48.058;7.810;2022-10-16T12:48:32;3.77;;;2.07;;
1699;SDS011;847;48.058;7.810;2022-10-16T12:51:09;2.43;;;1.30;;
1699;SDS011;847;48.058;7.810;2022-10-16T12:53:37;1.50;;;1.37;;
1699;SDS011;847;48.058;7.810;2022-10-16T12:56:11;3.17;;;1.73;;
1699;SDS011;847;48.058;7.810;2022-10-16T12:58:49;1.90;;;1.63;;
1699;SDS011;847;48.058;7.810;2022-10-16T13:01:33;2.10;;;1.53;;
1699;SDS011;847;48.058;7.810;2022-10-16T13:04:13;3.53;;;1.60;;
1699;SDS011;847;48.058;7.810;2022-10-16T13:06:59;1.70;;;1.60;;
1699;SDS011;847;48.058;7.810;2022-10-16T13:09:35;3.57;;;1.60;;
1699;SDS011;847;48.058;7.810;2022-10-16T13:12:15;1.70;;;1.60;;
1699;SDS011;847;48.058;7.810;2022-10-16T13:15:14;1.63;;;1.50;;
1699;SDS011;847;48.058;7.810;2022-10-16T13:17:50;2.87;;;1.60;;
1699;SDS011;847;48.058;7.810;2022-10-16T13:20:27;1.63;;;1.50;;
1699;SDS011;847;48.058;7.810;2022-10-16T13:23:00;5.27;;;1.97;;
1699;SDS011;847;48.058;7.810;2022-10-16T13:25:38;2.33;;;1.80;;
1699;SDS011;847;48.058;7.810;2022-10-16T13:28:13;2.50;;;1.93;;
1699;SDS011;847;48.058;7.810;2022-10-16T13:30:43;1.87;;;1.53;;
1699;SDS011;847;48.058;7.810;2022-10-16T13:33:17;3.20;;;1.90;;
1699;SDS011;847;48.058;7.810;2022-10-16T13:35:49;5.10;;;1.93;;
1699;SDS011;847;48.058;7.810;2022-10-16T13:38:17;1.93;;;1.70;;
1699;SDS011;847;48.058;7.810;2022-10-16T13:40:52;3.07;;;1.73;;
1699;SDS011;847;48.058;7.810;2022-10-16T13:43:22;2.20;;;1.50;;
1699;SDS011;847;48.058;7.810;2022-10-16T13:45:52;4.50;;;1.40;;
1699;SDS011;847;48.058;7.810;2022-10-16T13:48:20;2.27;;;2.00;;
1699;SDS011;847;48.058;7.810;2022-10-16T13:50:59;1.83;;;1.40;;
1699;SDS011;847;48.058;7.810;2022-10-16T13:53:26;2.17;;;1.57;;
1699;SDS011;847;48.058;7.810;2022-10-16T13:55:55;1.80;;;1.47;;
1699;SDS011;847;48.058;7.810;2022-10-16T13:58:22;4.10;;;1.70;;
1699;SDS011;847;48.058;7.810;2022-10-16T14:00:53;4.03;;;1.50;;
1699;SDS011;847;48.058;7.810;2022-10-16T14:03:22;1.63;;;1.53;;
1699;SDS011;847;48.058;7.810;2022-10-16T14:05:50;3.60;;;1.80;;
1699;SDS011;847;48.058;7.810;2022-10-16T14:08:23;2.30;;;1.50;;
1699;SDS011;847;48.058;7.810;2022-10-16T14:10:52;2.70;;;1.50;;
1699;SDS011;847;48.058;7.810;2022-10-16T14:13:28;1.37;;;1.27;;
1699;SDS011;847;48.058;7.810;2022-10-16T14:15:57;2.00;;;1.80;;
1699;SDS011;847;48.058;7.810;2022-10-16T14:18:28;3.90;;;1.60;;
1699;SDS011;847;48.058;7.810;2022-10-16T14:21:02;3.50;;;1.70;;
1699;SDS011;847;48.058;7.810;2022-10-16T14:23:32;4.77;;;1.50;;
1699;SDS011;847;48.058;7.810;2022-10-16T14:26:12;4.73;;;2.20;;
1699;SDS011;847;48.058;7.810;2022-10-16T14:28:40;2.43;;;1.70;;
1699;SDS011;847;48.058;7.810;2022-10-16T14:31:25;3.60;;;1.40;;
1699;SDS011;847;48.058;7.810;2022-10-16T14:33:54;2.60;;;1.57;;
1699;SDS011;847;48.058;7.810;2022-10-16T14:36:22;1.57;;;1.40;;
1699;SDS011;847;48.058;7.810;2022-10-16T14:38:54;1.60;;;1.50;;
1699;SDS011;847;48.058;7.810;2022-10-16T14:41:26;3.40;;;1.77;;
1699;SDS011;847;48.058;7.810;2022-10-16T14:43:54;1.50;;;1.40;;
1699;SDS011;847;48.058;7.810;2022-10-16T14:46:22;2.00;;;1.60;;
1699;SDS011;847;48.058;7.810;2022-10-16T14:48:58;1.93;;;1.33;;
1699;SDS011;847;48.058;7.810;2022-10-16T14:51:28;2.07;;;1.20;;
1699;SDS011;847;48.058;7.810;2022-10-16T14:53:56;2.20;;;1.40;;
1699;SDS011;847;48.058;7.810;2022-10-16T14:56:24;3.30;;;1.67;;
1699;SDS011;847;48.058;7.810;2022-10-16T14:58:54;3.53;;;1.63;;
1699;SDS011;847;48.058;7.810;2022-10-16T15:01:21;1.80;;;1.70;;
1699;SDS011;847;48.058;7.810;2022-10-16T15:03:48;2.47;;;1.53;;
1699;SDS011;847;48.058;7.810;2022-10-16T15:06:17;3.37;;;1.50;;
1699;SDS011;847;48.058;7.810;2022-10-16T15:08:44;14.57;;;6.17;;
1699;SDS011;847;48.058;7.810;2022-10-16T15:11:13;8.47;;;3.03;;
1699;SDS011;847;48.058;7.810;2022-10-16T15:13:41;2.97;;;1.80;;
1699;SDS011;847;48.058;7.810;2022-10-16T15:16:10;2.53;;;1.67;;
1699;SDS011;847;48.058;7.810;2022-10-16T15:18:38;1.50;;;1.40;;
1699;SDS011;847;48.058;7.810;2022-10-16T15:21:05;1.50;;;1.40;;
1699;SDS011;847;48.058;7.810;2022-10-16T15:23:32;2.07;;;1.80;;
1699;SDS011;847;48.058;7.810;2022-10-16T15:25:58;1.60;;;1.40;;
1699;SDS011;847;48.058;7.810;2022-10-16T15:28:27;1.50;;;1.40;;
1699;SDS011;847;48.058;7.810;2022-10-16T15:30:54;1.80;;;1.40;;
1699;SDS011;847;48.058;7.810;2022-10-16T15:33:22;1.87;;;1.77;;
1699;SDS011;847;48.058;7.810;2022-10-16T15:35:52;5.33;;;1.90;;
1699;SDS011;847;48.058;7.810;2022-10-16T15:38:20;2.43;;;2.20;;
1699;SDS011;847;48.058;7.810;2022-10-16T15:40:48;1.77;;;1.67;;
1699;SDS011;847;48.058;7.810;2022-10-16T15:43:15;2.80;;;2.00;;
1699;SDS011;847;48.058;7.810;2022-10-16T15:45:44;2.30;;;2.10;;
1699;SDS011;847;48.058;7.810;2022-10-16T15:48:24;3.50;;;1.90;;
1699;SDS011;847;48.058;7.810;2022-10-16T15:50:51;2.50;;;1.80;;
1699;SDS011;847;48.058;7.810;2022-10-16T15:53:18;4.17;;;1.50;;
1699;SDS011;847;48.058;7.810;2022-10-16T15:55:45;5.63;;;2.27;;